KAL273 RKPC-RKSS
Flight info
| Callsign | KAL273 |
|---|---|
| Flight time | N/A |
| Altitude | 23000 |
| Route | KAMIT2E KAMIT Y722 OLMEN |
| Aircraft | A333/H-SDE3GHIJ2J3J5M1RVWXY/LB2D1 |
Departure
| Time | 2026-05-06 13:04 |
|---|---|
| Airport | Jeju International Airport (RKPC) |
Arrival
| Time | N/A |
|---|---|
| Airport | Gimpo International Airport (RKSS) |
| Time | Latitude | Longitude | Altitude | Speed | Heading |
|---|---|---|---|---|---|
| 2026-05-06 12:27 | 33.50819 | 126.49487 | 98 ft | 0 kts | 178° |
| 2026-05-06 12:54 | 33.50822 | 126.49487 | 101 ft | 3 kts | 179° |
| 2026-05-06 12:54 | 33.50848 | 126.49489 | 100 ft | 4 kts | 194° |
| 2026-05-06 12:55 | 33.50873 | 126.49499 | 97 ft | 4 kts | 210° |
| 2026-05-06 12:55 | 33.50895 | 126.49518 | 98 ft | 4 kts | 226° |
| 2026-05-06 12:55 | 33.50911 | 126.49544 | 98 ft | 4 kts | 243° |
| 2026-05-06 12:55 | 33.50919 | 126.49573 | 98 ft | 4 kts | 272° |
| 2026-05-06 12:56 | 33.50918 | 126.49587 | 96 ft | 4 kts | 295° |
| 2026-05-06 12:58 | 33.50920 | 126.49580 | 96 ft | 3 kts | 295° |
| 2026-05-06 12:59 | 33.50939 | 126.49550 | 99 ft | 5 kts | 321° |
| 2026-05-06 12:59 | 33.50955 | 126.49477 | 98 ft | 19 kts | 269° |
| 2026-05-06 12:59 | 33.50982 | 126.49392 | 99 ft | 10 kts | 306° |
| 2026-05-06 12:59 | 33.51039 | 126.49323 | 97 ft | 13 kts | 296° |
| 2026-05-06 13:00 | 33.51021 | 126.49229 | 92 ft | 13 kts | 244° |
| 2026-05-06 13:00 | 33.50987 | 126.49151 | 93 ft | 7 kts | 243° |
| 2026-05-06 13:00 | 33.50955 | 126.49090 | 95 ft | 10 kts | 237° |
| 2026-05-06 13:00 | 33.50914 | 126.49018 | 94 ft | 11 kts | 236° |
| 2026-05-06 13:01 | 33.50854 | 126.48910 | 97 ft | 20 kts | 239° |
| 2026-05-06 13:01 | 33.50772 | 126.48744 | 96 ft | 26 kts | 237° |
| 2026-05-06 13:01 | 33.50666 | 126.48536 | 98 ft | 32 kts | 238° |
| 2026-05-06 13:01 | 33.50537 | 126.48289 | 99 ft | 37 kts | 239° |
| 2026-05-06 13:02 | 33.50395 | 126.48011 | 99 ft | 41 kts | 238° |
| 2026-05-06 13:02 | 33.50239 | 126.47705 | 100 ft | 45 kts | 239° |
| 2026-05-06 13:02 | 33.50070 | 126.47377 | 103 ft | 47 kts | 239° |
| 2026-05-06 13:02 | 33.49918 | 126.47078 | 102 ft | 22 kts | 239° |
| 2026-05-06 13:03 | 33.49918 | 126.46928 | 103 ft | 19 kts | 320° |
| 2026-05-06 13:03 | 33.50029 | 126.46935 | 101 ft | 17 kts | 38° |
| 2026-05-06 13:03 | 33.50097 | 126.47048 | 102 ft | 16 kts | 57° |
| 2026-05-06 13:03 | 33.50170 | 126.47197 | 101 ft | 35 kts | 60° |
| 2026-05-06 13:04 | 33.50420 | 126.47678 | 101 ft | 101 kts | 59° |
| 2026-05-06 13:04 | 33.50890 | 126.48596 | 100 ft | 155 kts | 57° |
| 2026-05-06 13:04 | 33.51455 | 126.49742 | 675 ft | 158 kts | 63° |
| 2026-05-06 13:04 | 33.52014 | 126.50854 | 980 ft | 153 kts | 55° |
| 2026-05-06 13:05 | 33.52131 | 126.51038 | 907 ft | 156 kts | 51° |
| 2026-05-06 13:05 | 33.52186 | 126.51118 | 864 ft | 158 kts | 50° |
| 2026-05-06 13:05 | 33.52833 | 126.52149 | 732 ft | 151 kts | 63° |
| 2026-05-06 13:06 | 33.52869 | 126.52231 | 729 ft | 150 kts | 66° |
| 2026-05-06 13:06 | 33.52959 | 126.53337 | 713 ft | 127 kts | 103° |
| 2026-05-06 13:06 | 33.53074 | 126.54425 | 358 ft | 141 kts | 75° |
| 2026-05-06 13:06 | 33.53370 | 126.55678 | 125 ft | 175 kts | 80° |
| 2026-05-06 13:07 | 33.53625 | 126.57142 | 598 ft | 184 kts | 83° |
| 2026-05-06 13:07 | 33.53879 | 126.58682 | 1379 ft | 204 kts | 72° |
| 2026-05-06 13:07 | 33.54591 | 126.60334 | 2429 ft | 234 kts | 62° |
| 2026-05-06 13:07 | 33.55482 | 126.62110 | 3660 ft | 263 kts | 62° |
| 2026-05-06 13:08 | 33.56458 | 126.64081 | 5027 ft | 285 kts | 60° |
| 2026-05-06 13:08 | 33.57492 | 126.66187 | 6474 ft | 301 kts | 60° |
| 2026-05-06 13:08 | 33.58569 | 126.68391 | 7918 ft | 311 kts | 60° |
| 2026-05-06 13:08 | 33.59672 | 126.70662 | 9434 ft | 318 kts | 59° |
| 2026-05-06 13:09 | 33.60787 | 126.72966 | 10913 ft | 321 kts | 59° |
| 2026-05-06 13:09 | 33.61902 | 126.75281 | 12380 ft | 321 kts | 59° |
| 2026-05-06 13:09 | 33.63090 | 126.77530 | 13869 ft | 318 kts | 47° |
| 2026-05-06 13:09 | 33.64804 | 126.79076 | 15142 ft | 312 kts | 20° |
| 2026-05-06 13:10 | 33.66924 | 126.79510 | 16188 ft | 312 kts | 355° |
| 2026-05-06 13:10 | 33.69048 | 126.78995 | 17225 ft | 313 kts | 337° |
| 2026-05-06 13:10 | 33.70994 | 126.77821 | 18325 ft | 314 kts | 324° |
| 2026-05-06 13:10 | 33.72762 | 126.76274 | 19269 ft | 316 kts | 322° |
| 2026-05-06 13:11 | 33.74553 | 126.74712 | 20185 ft | 319 kts | 322° |
| 2026-05-06 13:11 | 33.76353 | 126.73151 | 21141 ft | 320 kts | 321° |
| 2026-05-06 13:11 | 33.78162 | 126.71589 | 22106 ft | 319 kts | 321° |
| 2026-05-06 13:11 | 33.79997 | 126.70052 | 22800 ft | 327 kts | 317° |
| 2026-05-06 13:12 | 33.81619 | 126.68076 | 23219 ft | 340 kts | 306° |
| 2026-05-06 13:12 | 33.82903 | 126.65570 | 23102 ft | 367 kts | 294° |
| 2026-05-06 13:12 | 33.83817 | 126.62585 | 22898 ft | 395 kts | 287° |
| 2026-05-06 13:12 | 33.84595 | 126.59291 | 22588 ft | 423 kts | 284° |
| 2026-05-06 13:13 | 33.85216 | 126.55843 | 22514 ft | 403 kts | 280° |
| 2026-05-06 13:13 | 33.85411 | 126.52678 | 22526 ft | 363 kts | 268° |
| 2026-05-06 13:13 | 33.85046 | 126.49729 | 21318 ft | 358 kts | 256° |
| 2026-05-06 13:13 | 33.84114 | 126.46920 | 19545 ft | 370 kts | 243° |
| 2026-05-06 13:14 | 33.82624 | 126.44377 | 17722 ft | 383 kts | 231° |
| 2026-05-06 13:14 | 33.80722 | 126.42114 | 16078 ft | 384 kts | 221° |
| 2026-05-06 13:14 | 33.78629 | 126.40171 | 14584 ft | 378 kts | 218° |
| 2026-05-06 13:14 | 33.76572 | 126.38254 | 13157 ft | 368 kts | 224° |
| 2026-05-06 13:15 | 33.74898 | 126.36038 | 12421 ft | 343 kts | 232° |
| 2026-05-06 13:15 | 33.73730 | 126.33788 | 12543 ft | 295 kts | 253° |
| 2026-05-06 13:15 | 33.73449 | 126.31520 | 12705 ft | 257 kts | 266° |
| 2026-05-06 13:15 | 33.73353 | 126.29424 | 12829 ft | 262 kts | 267° |
| 2026-05-06 13:16 | 33.73283 | 126.27069 | 11858 ft | 296 kts | 268° |
| 2026-05-06 13:16 | 33.73232 | 126.24503 | 10686 ft | 317 kts | 269° |
| 2026-05-06 13:16 | 33.73180 | 126.21888 | 10137 ft | 301 kts | 267° |
| 2026-05-06 13:16 | 33.73028 | 126.19463 | 9875 ft | 286 kts | 264° |
| 2026-05-06 13:17 | 33.72764 | 126.17112 | 9522 ft | 283 kts | 259° |
| 2026-05-06 13:17 | 33.72288 | 126.14806 | 9113 ft | 285 kts | 252° |
| 2026-05-06 13:17 | 33.71597 | 126.12583 | 8709 ft | 282 kts | 246° |
| 2026-05-06 13:17 | 33.70729 | 126.10490 | 8323 ft | 278 kts | 242° |
| 2026-05-06 13:18 | 33.69841 | 126.08451 | 7932 ft | 274 kts | 242° |
| 2026-05-06 13:18 | 33.68782 | 126.06574 | 7552 ft | 270 kts | 226° |
| 2026-05-06 13:18 | 33.67166 | 126.05544 | 7167 ft | 269 kts | 186° |
| 2026-05-06 13:18 | 33.65404 | 126.06060 | 7020 ft | 262 kts | 148° |
| 2026-05-06 13:19 | 33.64098 | 126.07504 | 6954 ft | 249 kts | 138° |
| 2026-05-06 13:19 | 33.62837 | 126.08851 | 6899 ft | 236 kts | 142° |
| 2026-05-06 13:19 | 33.61541 | 126.10044 | 6655 ft | 234 kts | 147° |
| 2026-05-06 13:19 | 33.60177 | 126.11110 | 6332 ft | 234 kts | 151° |
| 2026-05-06 13:20 | 33.58742 | 126.12056 | 5959 ft | 237 kts | 154° |
| 2026-05-06 13:20 | 33.57296 | 126.13001 | 5661 ft | 236 kts | 151° |
| 2026-05-06 13:20 | 33.55929 | 126.14063 | 5407 ft | 233 kts | 147° |
| 2026-05-06 13:20 | 33.54640 | 126.15113 | 5358 ft | 221 kts | 148° |
| 2026-05-06 13:21 | 33.53366 | 126.16084 | 5249 ft | 213 kts | 150° |
| 2026-05-06 13:21 | 33.52114 | 126.17006 | 5172 ft | 210 kts | 149° |
| 2026-05-06 13:21 | 33.50902 | 126.17982 | 5081 ft | 210 kts | 145° |
| 2026-05-06 13:21 | 33.49788 | 126.19115 | 5000 ft | 211 kts | 139° |
| 2026-05-06 13:22 | 33.48693 | 126.20276 | 4929 ft | 210 kts | 144° |
| 2026-05-06 13:22 | 33.47483 | 126.21239 | 4925 ft | 209 kts | 149° |
| 2026-05-06 13:22 | 33.46275 | 126.22217 | 5003 ft | 209 kts | 147° |
| 2026-05-06 13:22 | 33.45131 | 126.23300 | 4918 ft | 210 kts | 139° |
| 2026-05-06 13:23 | 33.44140 | 126.24577 | 4806 ft | 210 kts | 131° |
| 2026-05-06 13:23 | 33.43252 | 126.25953 | 4668 ft | 204 kts | 126° |
| 2026-05-06 13:23 | 33.42565 | 126.27399 | 4443 ft | 199 kts | 116° |
| 2026-05-06 13:23 | 33.42171 | 126.28956 | 4250 ft | 191 kts | 100° |
| 2026-05-06 13:24 | 33.42189 | 126.30495 | 4165 ft | 179 kts | 84° |
| 2026-05-06 13:24 | 33.42523 | 126.31885 | 4002 ft | 173 kts | 67° |
| 2026-05-06 13:24 | 33.43113 | 126.33152 | 3713 ft | 176 kts | 62° |
| 2026-05-06 13:24 | 33.43713 | 126.34410 | 3358 ft | 177 kts | 65° |
| 2026-05-06 13:25 | 33.44304 | 126.35685 | 3013 ft | 171 kts | 63° |
| 2026-05-06 13:25 | 33.44904 | 126.36881 | 2606 ft | 168 kts | 60° |
| 2026-05-06 13:25 | 33.45538 | 126.38056 | 2116 ft | 165 kts | 59° |
| 2026-05-06 13:25 | 33.46091 | 126.39197 | 1844 ft | 153 kts | 62° |
| 2026-05-06 13:26 | 33.46618 | 126.40290 | 1479 ft | 150 kts | 62° |
| 2026-05-06 13:26 | 33.47194 | 126.41294 | 1235 ft | 146 kts | 50° |
| 2026-05-06 13:26 | 33.47711 | 126.42325 | 936 ft | 146 kts | 65° |
| 2026-05-06 13:26 | 33.48215 | 126.43378 | 772 ft | 145 kts | 60° |
| 2026-05-06 13:27 | 33.48737 | 126.44392 | 614 ft | 141 kts | 62° |
| 2026-05-06 13:27 | 33.49229 | 126.45376 | 424 ft | 134 kts | 60° |
| 2026-05-06 13:27 | 33.49735 | 126.46342 | 256 ft | 138 kts | 59° |
| 2026-05-06 13:27 | 33.50236 | 126.47325 | 104 ft | 139 kts | 58° |
| 2026-05-06 13:28 | 33.50679 | 126.48191 | 100 ft | 92 kts | 58° |
| 2026-05-06 13:28 | 33.50855 | 126.48547 | 96 ft | 32 kts | 76° |
| 2026-05-06 13:28 | 33.50886 | 126.48794 | 95 ft | 25 kts | 87° |
| 2026-05-06 13:28 | 33.50905 | 126.48992 | 94 ft | 24 kts | 68° |
| 2026-05-06 13:29 | 33.50969 | 126.49167 | 95 ft | 20 kts | 53° |
| 2026-05-06 13:29 | 33.51039 | 126.49278 | 95 ft | 12 kts | 67° |
| 2026-05-06 13:29 | 33.51016 | 126.49347 | 95 ft | 9 kts | 136° |
| 2026-05-06 13:29 | 33.50965 | 126.49393 | 98 ft | 9 kts | 142° |
| 2026-05-06 13:30 | 33.50907 | 126.49428 | 100 ft | 9 kts | 165° |
| 2026-05-06 13:30 | 33.50845 | 126.49437 | 98 ft | 6 kts | 175° |
| 2026-05-06 13:30 | 33.50810 | 126.49440 | 100 ft | 0 kts | 176° |
| 2026-05-06 13:30 | 33.50809 | 126.49440 | 100 ft | 0 kts | 176° |